sensor_id;sensor_type;location;lat;lon;timestamp;P1;durP1;ratioP1;P2;durP2;ratioP2
70796;SDS011;59398;52.170;5.386;2022-09-21T00:01:24;4.10;;;1.50;;
70796;SDS011;59398;52.170;5.386;2022-09-21T00:03:54;8.10;;;1.65;;
70796;SDS011;59398;52.170;5.386;2022-09-21T00:06:27;6.07;;;1.70;;
70796;SDS011;59398;52.170;5.386;2022-09-21T00:08:56;6.15;;;1.70;;
70796;SDS011;59398;52.170;5.386;2022-09-21T00:11:24;5.82;;;1.80;;
70796;SDS011;59398;52.170;5.386;2022-09-21T00:13:55;5.32;;;1.60;;
70796;SDS011;59398;52.170;5.386;2022-09-21T00:16:26;5.30;;;1.88;;
70796;SDS011;59398;52.170;5.386;2022-09-21T00:18:54;6.68;;;1.80;;
70796;SDS011;59398;52.170;5.386;2022-09-21T00:21:24;5.60;;;1.70;;
70796;SDS011;59398;52.170;5.386;2022-09-21T00:23:51;7.18;;;2.08;;
70796;SDS011;59398;52.170;5.386;2022-09-21T00:26:20;8.38;;;1.92;;
70796;SDS011;59398;52.170;5.386;2022-09-21T00:28:51;8.20;;;2.05;;
70796;SDS011;59398;52.170;5.386;2022-09-21T00:31:20;4.97;;;1.70;;
70796;SDS011;59398;52.170;5.386;2022-09-21T00:33:48;6.63;;;1.77;;
70796;SDS011;59398;52.170;5.386;2022-09-21T00:36:17;6.50;;;1.80;;
70796;SDS011;59398;52.170;5.386;2022-09-21T00:38:49;5.65;;;1.85;;
70796;SDS011;59398;52.170;5.386;2022-09-21T00:41:22;6.55;;;1.90;;
70796;SDS011;59398;52.170;5.386;2022-09-21T00:44:36;7.28;;;1.80;;
70796;SDS011;59398;52.170;5.386;2022-09-21T00:46:44;8.25;;;2.00;;
70796;SDS011;59398;52.170;5.386;2022-09-21T00:49:13;5.65;;;1.80;;
70796;SDS011;59398;52.170;5.386;2022-09-21T00:51:40;7.90;;;1.90;;
70796;SDS011;59398;52.170;5.386;2022-09-21T00:54:09;7.60;;;2.20;;
70796;SDS011;59398;52.170;5.386;2022-09-21T00:56:40;6.95;;;2.17;;
70796;SDS011;59398;52.170;5.386;2022-09-21T00:59:10;6.43;;;1.90;;
70796;SDS011;59398;52.170;5.386;2022-09-21T01:01:39;7.78;;;1.90;;
70796;SDS011;59398;52.170;5.386;2022-09-21T01:04:08;6.72;;;1.80;;
70796;SDS011;59398;52.170;5.386;2022-09-21T01:06:37;4.75;;;1.70;;
70796;SDS011;59398;52.170;5.386;2022-09-21T01:09:05;5.70;;;1.60;;
70796;SDS011;59398;52.170;5.386;2022-09-21T01:11:46;7.50;;;1.80;;
70796;SDS011;59398;52.170;5.386;2022-09-21T01:14:44;7.32;;;1.70;;
70796;SDS011;59398;52.170;5.386;2022-09-21T01:17:35;5.40;;;1.67;;
70796;SDS011;59398;52.170;5.386;2022-09-21T01:29:05;4.38;;;1.30;;
70796;SDS011;59398;52.170;5.386;2022-09-21T01:31:44;5.78;;;1.50;;
70796;SDS011;59398;52.170;5.386;2022-09-21T01:34:33;5.82;;;1.40;;
70796;SDS011;59398;52.170;5.386;2022-09-21T01:37:10;5.82;;;1.42;;
70796;SDS011;59398;52.170;5.386;2022-09-21T01:39:44;5.07;;;1.33;;
70796;SDS011;59398;52.170;5.386;2022-09-21T01:42:16;5.10;;;1.30;;
70796;SDS011;59398;52.170;5.386;2022-09-21T01:44:45;5.60;;;1.40;;
70796;SDS011;59398;52.170;5.386;2022-09-21T01:47:13;5.07;;;1.45;;
70796;SDS011;59398;52.170;5.386;2022-09-21T01:49:46;4.57;;;1.40;;
70796;SDS011;59398;52.170;5.386;2022-09-21T01:52:22;5.13;;;1.45;;
70796;SDS011;59398;52.170;5.386;2022-09-21T01:55:17;4.07;;;1.40;;
70796;SDS011;59398;52.170;5.386;2022-09-21T01:57:54;4.38;;;1.30;;
70796;SDS011;59398;52.170;5.386;2022-09-21T02:00:28;6.30;;;1.40;;
70796;SDS011;59398;52.170;5.386;2022-09-21T02:05:35;7.03;;;1.60;;
70796;SDS011;59398;52.170;5.386;2022-09-21T02:08:04;6.20;;;1.50;;
70796;SDS011;59398;52.170;5.386;2022-09-21T02:10:34;5.90;;;1.60;;
70796;SDS011;59398;52.170;5.386;2022-09-21T02:13:10;5.55;;;1.50;;
70796;SDS011;59398;52.170;5.386;2022-09-21T02:20:55;5.07;;;1.40;;
70796;SDS011;59398;52.170;5.386;2022-09-21T02:23:26;4.03;;;1.20;;
70796;SDS011;59398;52.170;5.386;2022-09-21T02:28:56;5.82;;;1.63;;
70796;SDS011;59398;52.170;5.386;2022-09-21T02:34:21;5.45;;;1.40;;
70796;SDS011;59398;52.170;5.386;2022-09-21T02:37:44;3.80;;;1.42;;
70796;SDS011;59398;52.170;5.386;2022-09-21T02:39:58;5.18;;;1.42;;
70796;SDS011;59398;52.170;5.386;2022-09-21T02:42:28;3.20;;;1.20;;
70796;SDS011;59398;52.170;5.386;2022-09-21T02:47:53;4.07;;;1.30;;
70796;SDS011;59398;52.170;5.386;2022-09-21T02:53:10;4.35;;;1.55;;
70796;SDS011;59398;52.170;5.386;2022-09-21T02:55:42;3.45;;;1.20;;
70796;SDS011;59398;52.170;5.386;2022-09-21T02:58:13;4.43;;;1.45;;
70796;SDS011;59398;52.170;5.386;2022-09-21T03:00:42;5.57;;;1.45;;
70796;SDS011;59398;52.170;5.386;2022-09-21T03:03:19;4.35;;;1.63;;
70796;SDS011;59398;52.170;5.386;2022-09-21T03:05:49;3.65;;;1.10;;
70796;SDS011;59398;52.170;5.386;2022-09-21T03:08:18;4.35;;;1.20;;
70796;SDS011;59398;52.170;5.386;2022-09-21T03:10:46;4.50;;;1.20;;
70796;SDS011;59398;52.170;5.386;2022-09-21T03:13:14;5.15;;;1.20;;
70796;SDS011;59398;52.170;5.386;2022-09-21T03:15:41;4.78;;;1.30;;
70796;SDS011;59398;52.170;5.386;2022-09-21T03:18:08;4.35;;;1.55;;
70796;SDS011;59398;52.170;5.386;2022-09-21T03:20:37;6.50;;;1.40;;
70796;SDS011;59398;52.170;5.386;2022-09-21T03:23:05;5.88;;;1.35;;
70796;SDS011;59398;52.170;5.386;2022-09-21T03:25:33;3.55;;;1.30;;
70796;SDS011;59398;52.170;5.386;2022-09-21T03:28:00;4.05;;;1.10;;
70796;SDS011;59398;52.170;5.386;2022-09-21T03:30:27;4.28;;;1.30;;
70796;SDS011;59398;52.170;5.386;2022-09-21T03:32:54;3.25;;;1.20;;
70796;SDS011;59398;52.170;5.386;2022-09-21T03:35:22;3.45;;;1.30;;
70796;SDS011;59398;52.170;5.386;2022-09-21T03:37:51;4.93;;;1.40;;
70796;SDS011;59398;52.170;5.386;2022-09-21T03:40:20;3.97;;;1.20;;
70796;SDS011;59398;52.170;5.386;2022-09-21T03:42:47;4.25;;;1.10;;
70796;SDS011;59398;52.170;5.386;2022-09-21T03:45:14;5.00;;;1.20;;
70796;SDS011;59398;52.170;5.386;2022-09-21T03:47:41;4.50;;;1.20;;
70796;SDS011;59398;52.170;5.386;2022-09-21T03:50:09;3.13;;;1.02;;
70796;SDS011;59398;52.170;5.386;2022-09-21T03:52:38;4.68;;;1.20;;
70796;SDS011;59398;52.170;5.386;2022-09-21T03:55:06;4.65;;;1.20;;
70796;SDS011;59398;52.170;5.386;2022-09-21T03:57:35;4.28;;;1.20;;
70796;SDS011;59398;52.170;5.386;2022-09-21T04:00:03;6.57;;;1.48;;
70796;SDS011;59398;52.170;5.386;2022-09-21T04:02:34;3.83;;;1.27;;
70796;SDS011;59398;52.170;5.386;2022-09-21T04:05:02;3.92;;;1.00;;
70796;SDS011;59398;52.170;5.386;2022-09-21T04:07:30;3.08;;;1.20;;
70796;SDS011;59398;52.170;5.386;2022-09-21T04:10:02;4.40;;;1.27;;
70796;SDS011;59398;52.170;5.386;2022-09-21T04:12:31;4.38;;;1.40;;
70796;SDS011;59398;52.170;5.386;2022-09-21T04:15:00;4.72;;;1.35;;
70796;SDS011;59398;52.170;5.386;2022-09-21T04:17:27;3.13;;;1.20;;
70796;SDS011;59398;52.170;5.386;2022-09-21T04:19:54;2.08;;;1.08;;
70796;SDS011;59398;52.170;5.386;2022-09-21T04:22:22;4.38;;;1.20;;
70796;SDS011;59398;52.170;5.386;2022-09-21T04:24:50;2.83;;;1.30;;
70796;SDS011;59398;52.170;5.386;2022-09-21T04:27:17;2.67;;;1.10;;
70796;SDS011;59398;52.170;5.386;2022-09-21T04:29:44;5.18;;;1.10;;
70796;SDS011;59398;52.170;5.386;2022-09-21T04:32:11;4.65;;;1.05;;
70796;SDS011;59398;52.170;5.386;2022-09-21T04:34:38;3.33;;;1.20;;
70796;SDS011;59398;52.170;5.386;2022-09-21T04:37:05;4.57;;;1.30;;
70796;SDS011;59398;52.170;5.386;2022-09-21T04:39:39;3.85;;;1.08;;
70796;SDS011;59398;52.170;5.386;2022-09-21T04:42:08;4.03;;;1.20;;
70796;SDS011;59398;52.170;5.386;2022-09-21T04:44:36;2.45;;;1.10;;
70796;SDS011;59398;52.170;5.386;2022-09-21T04:47:04;2.92;;;1.00;;
70796;SDS011;59398;52.170;5.386;2022-09-21T04:49:31;5.63;;;1.10;;
70796;SDS011;59398;52.170;5.386;2022-09-21T04:51:57;4.75;;;1.20;;
70796;SDS011;59398;52.170;5.386;2022-09-21T04:54:25;4.55;;;1.10;;
70796;SDS011;59398;52.170;5.386;2022-09-21T04:56:52;4.85;;;1.30;;
70796;SDS011;59398;52.170;5.386;2022-09-21T04:59:19;3.40;;;1.17;;
70796;SDS011;59398;52.170;5.386;2022-09-21T05:01:46;3.38;;;1.00;;
70796;SDS011;59398;52.170;5.386;2022-09-21T05:04:13;2.83;;;1.00;;
70796;SDS011;59398;52.170;5.386;2022-09-21T05:06:40;3.75;;;1.20;;
70796;SDS011;59398;52.170;5.386;2022-09-21T05:09:07;5.38;;;1.10;;
70796;SDS011;59398;52.170;5.386;2022-09-21T05:11:54;4.07;;;1.10;;
70796;SDS011;59398;52.170;5.386;2022-09-21T05:14:21;5.18;;;1.10;;
70796;SDS011;59398;52.170;5.386;2022-09-21T05:16:51;3.75;;;1.10;;
70796;SDS011;59398;52.170;5.386;2022-09-21T05:19:19;2.55;;;0.90;;
70796;SDS011;59398;52.170;5.386;2022-09-21T05:21:48;3.28;;;0.90;;
70796;SDS011;59398;52.170;5.386;2022-09-21T05:24:15;2.55;;;1.00;;
70796;SDS011;59398;52.170;5.386;2022-09-21T05:26:42;4.93;;;1.20;;
70796;SDS011;59398;52.170;5.386;2022-09-21T05:29:09;3.28;;;0.90;;
70796;SDS011;59398;52.170;5.386;2022-09-21T05:34:16;4.78;;;1.40;;
70796;SDS011;59398;52.170;5.386;2022-09-21T05:37:11;2.05;;;0.73;;
70796;SDS011;59398;52.170;5.386;2022-09-21T05:39:52;4.43;;;1.00;;
70796;SDS011;59398;52.170;5.386;2022-09-21T05:42:19;7.45;;;2.67;;
70796;SDS011;59398;52.170;5.386;2022-09-21T05:44:46;9.02;;;2.08;;
70796;SDS011;59398;52.170;5.386;2022-09-21T05:49:52;5.47;;;1.60;;
70796;SDS011;59398;52.170;5.386;2022-09-21T05:52:50;4.63;;;1.65;;
70796;SDS011;59398;52.170;5.386;2022-09-21T05:55:44;4.72;;;1.30;;
70796;SDS011;59398;52.170;5.386;2022-09-21T05:58:36;4.13;;;1.38;;
70796;SDS011;59398;52.170;5.386;2022-09-21T06:04:06;3.85;;;1.00;;
70796;SDS011;59398;52.170;5.386;2022-09-21T06:06:37;2.83;;;1.00;;
70796;SDS011;59398;52.170;5.386;2022-09-21T06:09:05;2.95;;;0.90;;
70796;SDS011;59398;52.170;5.386;2022-09-21T06:11:32;3.35;;;1.15;;
70796;SDS011;59398;52.170;5.386;2022-09-21T06:14:00;4.05;;;1.10;;
70796;SDS011;59398;52.170;5.386;2022-09-21T06:16:41;5.57;;;1.08;;
70796;SDS011;59398;52.170;5.386;2022-09-21T06:19:11;2.42;;;0.90;;
70796;SDS011;59398;52.170;5.386;2022-09-21T06:21:39;4.90;;;1.40;;
70796;SDS011;59398;52.170;5.386;2022-09-21T06:24:06;5.25;;;1.23;;
70796;SDS011;59398;52.170;5.386;2022-09-21T06:26:33;5.88;;;1.00;;
70796;SDS011;59398;52.170;5.386;2022-09-21T06:29:00;3.80;;;1.00;;
70796;SDS011;59398;52.170;5.386;2022-09-21T06:31:27;4.50;;;1.27;;
70796;SDS011;59398;52.170;5.386;2022-09-21T06:33:58;7.28;;;1.40;;
70796;SDS011;59398;52.170;5.386;2022-09-21T06:36:25;7.03;;;1.27;;
70796;SDS011;59398;52.170;5.386;2022-09-21T06:38:52;6.72;;;2.05;;
70796;SDS011;59398;52.170;5.386;2022-09-21T06:41:20;4.82;;;1.10;;
70796;SDS011;59398;52.170;5.386;2022-09-21T06:43:47;5.20;;;1.10;;
70796;SDS011;59398;52.170;5.386;2022-09-21T06:46:14;6.15;;;1.35;;
70796;SDS011;59398;52.170;5.386;2022-09-21T06:48:41;4.88;;;1.25;;
70796;SDS011;59398;52.170;5.386;2022-09-21T06:51:09;5.72;;;1.13;;
70796;SDS011;59398;52.170;5.386;2022-09-21T06:53:36;7.93;;;1.20;;
70796;SDS011;59398;52.170;5.386;2022-09-21T06:56:04;7.00;;;1.23;;
70796;SDS011;59398;52.170;5.386;2022-09-21T07:01:06;4.18;;;1.40;;
70796;SDS011;59398;52.170;5.386;2022-09-21T07:03:36;6.65;;;1.45;;
70796;SDS011;59398;52.170;5.386;2022-09-21T07:06:05;6.70;;;1.50;;
70796;SDS011;59398;52.170;5.386;2022-09-21T07:08:35;4.65;;;1.50;;
70796;SDS011;59398;52.170;5.386;2022-09-21T07:11:25;5.57;;;1.60;;
70796;SDS011;59398;52.170;5.386;2022-09-21T07:13:52;5.45;;;1.60;;
70796;SDS011;59398;52.170;5.386;2022-09-21T07:16:21;6.13;;;2.08;;
70796;SDS011;59398;52.170;5.386;2022-09-21T07:18:48;7.57;;;2.22;;
70796;SDS011;59398;52.170;5.386;2022-09-21T07:21:15;7.22;;;2.25;;
70796;SDS011;59398;52.170;5.386;2022-09-21T07:23:42;6.35;;;2.08;;
70796;SDS011;59398;52.170;5.386;2022-09-21T07:26:10;5.82;;;2.05;;
70796;SDS011;59398;52.170;5.386;2022-09-21T07:28:38;8.77;;;2.38;;
70796;SDS011;59398;52.170;5.386;2022-09-21T07:31:09;8.63;;;2.53;;
70796;SDS011;59398;52.170;5.386;2022-09-21T07:33:43;11.80;;;2.80;;
70796;SDS011;59398;52.170;5.386;2022-09-21T07:36:14;8.88;;;2.80;;
70796;SDS011;59398;52.170;5.386;2022-09-21T07:38:43;7.03;;;2.63;;
70796;SDS011;59398;52.170;5.386;2022-09-21T07:41:11;8.00;;;2.80;;
70796;SDS011;59398;52.170;5.386;2022-09-21T07:43:38;8.32;;;2.90;;
70796;SDS011;59398;52.170;5.386;2022-09-21T07:46:06;7.75;;;2.80;;
70796;SDS011;59398;52.170;5.386;2022-09-21T07:48:34;7.07;;;2.30;;
70796;SDS011;59398;52.170;5.386;2022-09-21T07:51:02;7.55;;;2.35;;
70796;SDS011;59398;52.170;5.386;2022-09-21T07:53:32;7.93;;;2.55;;
70796;SDS011;59398;52.170;5.386;2022-09-21T07:56:03;8.07;;;2.33;;
70796;SDS011;59398;52.170;5.386;2022-09-21T07:58:32;6.97;;;2.50;;
70796;SDS011;59398;52.170;5.386;2022-09-21T08:01:18;6.53;;;2.50;;
70796;SDS011;59398;52.170;5.386;2022-09-21T08:03:49;8.70;;;2.80;;
70796;SDS011;59398;52.170;5.386;2022-09-21T08:06:17;7.80;;;2.30;;
70796;SDS011;59398;52.170;5.386;2022-09-21T08:08:45;5.95;;;2.30;;
70796;SDS011;59398;52.170;5.386;2022-09-21T08:11:22;7.95;;;2.70;;
70796;SDS011;59398;52.170;5.386;2022-09-21T08:13:52;6.18;;;2.10;;
70796;SDS011;59398;52.170;5.386;2022-09-21T08:16:21;8.40;;;2.20;;
70796;SDS011;59398;52.170;5.386;2022-09-21T08:18:48;6.80;;;2.30;;
70796;SDS011;59398;52.170;5.386;2022-09-21T08:21:16;8.43;;;2.30;;
70796;SDS011;59398;52.170;5.386;2022-09-21T08:23:45;5.85;;;2.00;;
70796;SDS011;59398;52.170;5.386;2022-09-21T08:28:45;7.35;;;2.10;;
70796;SDS011;59398;52.170;5.386;2022-09-21T08:31:17;5.40;;;1.80;;
70796;SDS011;59398;52.170;5.386;2022-09-21T08:33:46;7.35;;;1.80;;
70796;SDS011;59398;52.170;5.386;2022-09-21T08:36:15;8.40;;;1.63;;
70796;SDS011;59398;52.170;5.386;2022-09-21T08:38:43;5.25;;;1.60;;
70796;SDS011;59398;52.170;5.386;2022-09-21T08:43:54;7.55;;;1.70;;
70796;SDS011;59398;52.170;5.386;2022-09-21T08:46:28;5.32;;;1.45;;
70796;SDS011;59398;52.170;5.386;2022-09-21T08:48:58;5.22;;;1.50;;
70796;SDS011;59398;52.170;5.386;2022-09-21T08:51:29;7.57;;;1.50;;
70796;SDS011;59398;52.170;5.386;2022-09-21T08:54:04;5.03;;;1.20;;
70796;SDS011;59398;52.170;5.386;2022-09-21T08:56:37;4.43;;;1.30;;
70796;SDS011;59398;52.170;5.386;2022-09-21T08:59:25;7.43;;;1.30;;
70796;SDS011;59398;52.170;5.386;2022-09-21T09:10:15;5.10;;;1.20;;
70796;SDS011;59398;52.170;5.386;2022-09-21T09:23:53;3.28;;;0.95;;
70796;SDS011;59398;52.170;5.386;2022-09-21T09:26:32;6.28;;;1.10;;
70796;SDS011;59398;52.170;5.386;2022-09-21T09:29:11;6.00;;;1.00;;
70796;SDS011;59398;52.170;5.386;2022-09-21T09:31:51;7.55;;;1.20;;
70796;SDS011;59398;52.170;5.386;2022-09-21T09:34:22;4.97;;;1.15;;
70796;SDS011;59398;52.170;5.386;2022-09-21T09:36:58;5.00;;;1.05;;
70796;SDS011;59398;52.170;5.386;2022-09-21T09:39:39;5.00;;;0.90;;
70796;SDS011;59398;52.170;5.386;2022-09-21T09:47:49;3.05;;;0.90;;
70796;SDS011;59398;52.170;5.386;2022-09-21T09:50:37;4.65;;;1.10;;
70796;SDS011;59398;52.170;5.386;2022-09-21T09:53:23;6.07;;;1.02;;
70796;SDS011;59398;52.170;5.386;2022-09-21T09:55:52;2.25;;;0.80;;
70796;SDS011;59398;52.170;5.386;2022-09-21T09:58:22;5.28;;;1.00;;
70796;SDS011;59398;52.170;5.386;2022-09-21T10:01:03;3.50;;;0.98;;
70796;SDS011;59398;52.170;5.386;2022-09-21T10:03:33;3.42;;;1.02;;
70796;SDS011;59398;52.170;5.386;2022-09-21T10:06:01;4.10;;;0.88;;
70796;SDS011;59398;52.170;5.386;2022-09-21T10:11:10;5.90;;;1.00;;
70796;SDS011;59398;52.170;5.386;2022-09-21T10:13:39;1.98;;;0.80;;
70796;SDS011;59398;52.170;5.386;2022-09-21T10:18:43;2.95;;;0.93;;
70796;SDS011;59398;52.170;5.386;2022-09-21T10:21:21;3.72;;;1.02;;
70796;SDS011;59398;52.170;5.386;2022-09-21T10:23:57;3.08;;;1.02;;
70796;SDS011;59398;52.170;5.386;2022-09-21T10:26:39;6.45;;;0.93;;
70796;SDS011;59398;52.170;5.386;2022-09-21T10:34:32;6.20;;;1.35;;
70796;SDS011;59398;52.170;5.386;2022-09-21T10:37:01;3.17;;;0.80;;
70796;SDS011;59398;52.170;5.386;2022-09-21T10:39:48;4.15;;;1.00;;
70796;SDS011;59398;52.170;5.386;2022-09-21T10:42:16;3.95;;;0.95;;
70796;SDS011;59398;52.170;5.386;2022-09-21T10:47:37;5.25;;;1.00;;
70796;SDS011;59398;52.170;5.386;2022-09-21T10:50:27;4.75;;;1.00;;
70796;SDS011;59398;52.170;5.386;2022-09-21T10:55:38;4.32;;;1.00;;
70796;SDS011;59398;52.170;5.386;2022-09-21T10:58:26;4.60;;;1.05;;
70796;SDS011;59398;52.170;5.386;2022-09-21T11:01:09;2.53;;;0.90;;
70796;SDS011;59398;52.170;5.386;2022-09-21T11:04:02;3.95;;;0.90;;
70796;SDS011;59398;52.170;5.386;2022-09-21T11:06:42;6.25;;;0.90;;
70796;SDS011;59398;52.170;5.386;2022-09-21T11:09:18;4.07;;;0.90;;
70796;SDS011;59398;52.170;5.386;2022-09-21T11:16:53;3.63;;;0.70;;
70796;SDS011;59398;52.170;5.386;2022-09-21T11:19:50;3.63;;;0.90;;
70796;SDS011;59398;52.170;5.386;2022-09-21T11:22:46;4.50;;;0.90;;
70796;SDS011;59398;52.170;5.386;2022-09-21T11:25:55;4.47;;;1.00;;
70796;SDS011;59398;52.170;5.386;2022-09-21T11:28:33;3.20;;;0.90;;
70796;SDS011;59398;52.170;5.386;2022-09-21T11:33:59;4.63;;;1.23;;
70796;SDS011;59398;52.170;5.386;2022-09-21T11:36:34;5.07;;;1.02;;
70796;SDS011;59398;52.170;5.386;2022-09-21T11:45:01;3.45;;;1.02;;
70796;SDS011;59398;52.170;5.386;2022-09-21T11:47:43;2.33;;;0.80;;
70796;SDS011;59398;52.170;5.386;2022-09-21T11:53:30;4.60;;;0.90;;
70796;SDS011;59398;52.170;5.386;2022-09-21T11:56:10;4.38;;;0.88;;
70796;SDS011;59398;52.170;5.386;2022-09-21T12:14:54;5.43;;;0.90;;
70796;SDS011;59398;52.170;5.386;2022-09-21T12:17:44;2.67;;;0.77;;
70796;SDS011;59398;52.170;5.386;2022-09-21T12:23:04;4.10;;;1.15;;
70796;SDS011;59398;52.170;5.386;2022-09-21T12:25:38;3.38;;;0.88;;
70796;SDS011;59398;52.170;5.386;2022-09-21T12:28:26;2.72;;;0.88;;
70796;SDS011;59398;52.170;5.386;2022-09-21T12:30:58;3.08;;;0.90;;
70796;SDS011;59398;52.170;5.386;2022-09-21T12:33:31;4.32;;;1.23;;
70796;SDS011;59398;52.170;5.386;2022-09-21T12:36:07;3.05;;;1.00;;
70796;SDS011;59398;52.170;5.386;2022-09-21T12:41:44;3.35;;;0.93;;
70796;SDS011;59398;52.170;5.386;2022-09-21T12:44:34;6.97;;;1.17;;
70796;SDS011;59398;52.170;5.386;2022-09-21T12:50:12;2.08;;;0.70;;
70796;SDS011;59398;52.170;5.386;2022-09-21T12:52:46;4.30;;;0.80;;
70796;SDS011;59398;52.170;5.386;2022-09-21T12:55:37;4.25;;;0.80;;
70796;SDS011;59398;52.170;5.386;2022-09-21T12:58:47;4.53;;;1.10;;
70796;SDS011;59398;52.170;5.386;2022-09-21T13:09:22;3.25;;;0.90;;
70796;SDS011;59398;52.170;5.386;2022-09-21T13:14:28;2.95;;;0.77;;
70796;SDS011;59398;52.170;5.386;2022-09-21T13:17:02;4.13;;;1.00;;
70796;SDS011;59398;52.170;5.386;2022-09-21T13:19:32;2.72;;;0.98;;
70796;SDS011;59398;52.170;5.386;2022-09-21T13:25:02;3.58;;;0.70;;
70796;SDS011;59398;52.170;5.386;2022-09-21T13:30:43;2.72;;;0.75;;
70796;SDS011;59398;52.170;5.386;2022-09-21T13:51:55;3.60;;;0.73;;
70796;SDS011;59398;52.170;5.386;2022-09-21T13:54:29;3.95;;;0.90;;
70796;SDS011;59398;52.170;5.386;2022-09-21T13:59:42;3.75;;;0.80;;
70796;SDS011;59398;52.170;5.386;2022-09-21T14:02:27;4.05;;;1.00;;
70796;SDS011;59398;52.170;5.386;2022-09-21T14:05:16;6.07;;;1.00;;
70796;SDS011;59398;52.170;5.386;2022-09-21T14:08:17;7.93;;;1.15;;
70796;SDS011;59398;52.170;5.386;2022-09-21T14:11:35;5.65;;;1.00;;
70796;SDS011;59398;52.170;5.386;2022-09-21T14:13:58;5.72;;;1.20;;
70796;SDS011;59398;52.170;5.386;2022-09-21T14:19:00;5.47;;;0.93;;
70796;SDS011;59398;52.170;5.386;2022-09-21T14:27:12;5.60;;;1.05;;
70796;SDS011;59398;52.170;5.386;2022-09-21T14:30:17;4.30;;;1.00;;
70796;SDS011;59398;52.170;5.386;2022-09-21T14:33:00;3.80;;;1.00;;
70796;SDS011;59398;52.170;5.386;2022-09-21T14:35:33;5.57;;;0.90;;
70796;SDS011;59398;52.170;5.386;2022-09-21T14:38:05;4.60;;;1.17;;
70796;SDS011;59398;52.170;5.386;2022-09-21T14:40:53;2.92;;;0.88;;
70796;SDS011;59398;52.170;5.386;2022-09-21T14:43:29;5.00;;;1.00;;
70796;SDS011;59398;52.170;5.386;2022-09-21T14:52:11;4.28;;;1.02;;
70796;SDS011;59398;52.170;5.386;2022-09-21T14:58:10;2.78;;;0.80;;
70796;SDS011;59398;52.170;5.386;2022-09-21T15:00:42;3.85;;;1.05;;
70796;SDS011;59398;52.170;5.386;2022-09-21T15:06:20;8.70;;;1.00;;
70796;SDS011;59398;52.170;5.386;2022-09-21T15:12:12;4.90;;;1.00;;
70796;SDS011;59398;52.170;5.386;2022-09-21T15:14:45;4.97;;;1.10;;
70796;SDS011;59398;52.170;5.386;2022-09-21T15:19:50;3.85;;;1.00;;
70796;SDS011;59398;52.170;5.386;2022-09-21T15:22:18;4.80;;;1.00;;
70796;SDS011;59398;52.170;5.386;2022-09-21T15:24:50;3.70;;;1.00;;
70796;SDS011;59398;52.170;5.386;2022-09-21T15:27:19;5.75;;;1.20;;
70796;SDS011;59398;52.170;5.386;2022-09-21T15:29:53;5.20;;;1.08;;
70796;SDS011;59398;52.170;5.386;2022-09-21T15:32:35;6.05;;;1.10;;
70796;SDS011;59398;52.170;5.386;2022-09-21T15:35:05;4.13;;;0.85;;
70796;SDS011;59398;52.170;5.386;2022-09-21T15:37:33;3.97;;;0.95;;
70796;SDS011;59398;52.170;5.386;2022-09-21T15:40:04;5.10;;;1.02;;
70796;SDS011;59398;52.170;5.386;2022-09-21T15:42:36;4.32;;;0.90;;
70796;SDS011;59398;52.170;5.386;2022-09-21T15:45:18;5.10;;;1.08;;
70796;SDS011;59398;52.170;5.386;2022-09-21T15:47:45;2.83;;;1.10;;
70796;SDS011;59398;52.170;5.386;2022-09-21T15:50:15;4.47;;;1.13;;
70796;SDS011;59398;52.170;5.386;2022-09-21T15:52:50;5.57;;;1.10;;
70796;SDS011;59398;52.170;5.386;2022-09-21T15:55:20;6.43;;;1.65;;
70796;SDS011;59398;52.170;5.386;2022-09-21T15:57:49;9.10;;;2.80;;
70796;SDS011;59398;52.170;5.386;2022-09-21T16:00:19;11.75;;;4.50;;
70796;SDS011;59398;52.170;5.386;2022-09-21T16:05:22;19.17;;;7.10;;
70796;SDS011;59398;52.170;5.386;2022-09-21T16:13:24;13.85;;;4.95;;
70796;SDS011;59398;52.170;5.386;2022-09-21T16:16:11;11.40;;;3.70;;
70796;SDS011;59398;52.170;5.386;2022-09-21T16:18:46;11.02;;;3.03;;
70796;SDS011;59398;52.170;5.386;2022-09-21T16:23:50;8.40;;;2.53;;
70796;SDS011;59398;52.170;5.386;2022-09-21T16:26:25;7.53;;;2.30;;
70796;SDS011;59398;52.170;5.386;2022-09-21T16:28:56;7.47;;;1.90;;
70796;SDS011;59398;52.170;5.386;2022-09-21T16:31:42;7.78;;;1.88;;
70796;SDS011;59398;52.170;5.386;2022-09-21T16:34:31;7.05;;;1.90;;
70796;SDS011;59398;52.170;5.386;2022-09-21T16:37:00;5.70;;;1.13;;
70796;SDS011;59398;52.170;5.386;2022-09-21T16:39:28;6.07;;;1.50;;
70796;SDS011;59398;52.170;5.386;2022-09-21T16:42:00;7.43;;;1.58;;
70796;SDS011;59398;52.170;5.386;2022-09-21T16:44:28;5.72;;;1.50;;
70796;SDS011;59398;52.170;5.386;2022-09-21T16:47:09;6.72;;;1.20;;
70796;SDS011;59398;52.170;5.386;2022-09-21T16:49:39;4.32;;;1.30;;
70796;SDS011;59398;52.170;5.386;2022-09-21T16:52:06;5.47;;;1.15;;
70796;SDS011;59398;52.170;5.386;2022-09-21T16:54:34;5.10;;;1.20;;
70796;SDS011;59398;52.170;5.386;2022-09-21T16:57:03;3.50;;;1.13;;
70796;SDS011;59398;52.170;5.386;2022-09-21T16:59:31;5.10;;;1.20;;
70796;SDS011;59398;52.170;5.386;2022-09-21T17:02:00;5.57;;;1.25;;
70796;SDS011;59398;52.170;5.386;2022-09-21T17:04:30;5.63;;;1.50;;
70796;SDS011;59398;52.170;5.386;2022-09-21T17:06:59;9.43;;;1.70;;
70796;SDS011;59398;52.170;5.386;2022-09-21T17:09:29;6.68;;;1.55;;
70796;SDS011;59398;52.170;5.386;2022-09-21T17:11:58;6.13;;;1.67;;
70796;SDS011;59398;52.170;5.386;2022-09-21T17:14:27;5.90;;;1.10;;
70796;SDS011;59398;52.170;5.386;2022-09-21T17:17:02;4.97;;;1.17;;
70796;SDS011;59398;52.170;5.386;2022-09-21T17:19:36;6.35;;;1.30;;
70796;SDS011;59398;52.170;5.386;2022-09-21T17:22:04;3.90;;;1.20;;
70796;SDS011;59398;52.170;5.386;2022-09-21T17:24:32;12.35;;;2.00;;
70796;SDS011;59398;52.170;5.386;2022-09-21T17:27:16;9.82;;;2.20;;
70796;SDS011;59398;52.170;5.386;2022-09-21T17:29:44;7.75;;;2.13;;
70796;SDS011;59398;52.170;5.386;2022-09-21T17:32:16;10.63;;;2.10;;
70796;SDS011;59398;52.170;5.386;2022-09-21T17:34:46;9.43;;;1.75;;
70796;SDS011;59398;52.170;5.386;2022-09-21T17:37:24;7.18;;;1.63;;
70796;SDS011;59398;52.170;5.386;2022-09-21T17:39:51;4.20;;;1.20;;
70796;SDS011;59398;52.170;5.386;2022-09-21T17:42:19;3.25;;;1.13;;
70796;SDS011;59398;52.170;5.386;2022-09-21T17:47:47;6.20;;;1.40;;
70796;SDS011;59398;52.170;5.386;2022-09-21T17:50:17;5.90;;;1.67;;
70796;SDS011;59398;52.170;5.386;2022-09-21T17:52:49;8.10;;;2.90;;
70796;SDS011;59398;52.170;5.386;2022-09-21T17:55:36;13.50;;;5.60;;
70796;SDS011;59398;52.170;5.386;2022-09-21T18:03:24;16.55;;;7.63;;
70796;SDS011;59398;52.170;5.386;2022-09-21T18:05:56;15.40;;;8.10;;
70796;SDS011;59398;52.170;5.386;2022-09-21T18:08:27;21.30;;;8.75;;
70796;SDS011;59398;52.170;5.386;2022-09-21T18:13:51;15.82;;;8.70;;
70796;SDS011;59398;52.170;5.386;2022-09-21T18:16:33;16.00;;;9.13;;
70796;SDS011;59398;52.170;5.386;2022-09-21T18:21:46;17.65;;;9.23;;
70796;SDS011;59398;52.170;5.386;2022-09-21T18:24:19;18.98;;;9.80;;
70796;SDS011;59398;52.170;5.386;2022-09-21T18:26:47;17.45;;;9.35;;
70796;SDS011;59398;52.170;5.386;2022-09-21T18:29:19;15.48;;;8.27;;
70796;SDS011;59398;52.170;5.386;2022-09-21T18:32:18;14.35;;;7.82;;
70796;SDS011;59398;52.170;5.386;2022-09-21T18:37:53;12.63;;;6.32;;
70796;SDS011;59398;52.170;5.386;2022-09-21T18:46:03;10.70;;;4.80;;
70796;SDS011;59398;52.170;5.386;2022-09-21T18:54:24;10.13;;;3.97;;
70796;SDS011;59398;52.170;5.386;2022-09-21T18:56:53;8.77;;;3.42;;
70796;SDS011;59398;52.170;5.386;2022-09-21T18:59:21;10.30;;;3.92;;
70796;SDS011;59398;52.170;5.386;2022-09-21T19:01:48;10.27;;;3.67;;
70796;SDS011;59398;52.170;5.386;2022-09-21T19:04:16;8.98;;;3.60;;
70796;SDS011;59398;52.170;5.386;2022-09-21T19:06:55;8.57;;;4.05;;
70796;SDS011;59398;52.170;5.386;2022-09-21T19:09:33;14.70;;;6.38;;
70796;SDS011;59398;52.170;5.386;2022-09-21T19:18:00;15.63;;;8.00;;